sensor_id;sensor_type;location;lat;lon;timestamp;P1;durP1;ratioP1;P2;durP2;ratioP2
21593;SDS011;10959;51.328;7.322;2024-03-02T00:01:14;2.37;;;2.17;;
21593;SDS011;10959;51.328;7.322;2024-03-02T00:03:41;3.70;;;2.10;;
21593;SDS011;10959;51.328;7.322;2024-03-02T00:06:08;2.00;;;1.80;;
21593;SDS011;10959;51.328;7.322;2024-03-02T00:08:37;4.27;;;1.77;;
21593;SDS011;10959;51.328;7.322;2024-03-02T00:11:04;2.20;;;2.00;;
21593;SDS011;10959;51.328;7.322;2024-03-02T00:13:30;1.83;;;1.70;;
21593;SDS011;10959;51.328;7.322;2024-03-02T00:15:58;1.70;;;1.50;;
21593;SDS011;10959;51.328;7.322;2024-03-02T00:18:25;2.27;;;2.07;;
21593;SDS011;10959;51.328;7.322;2024-03-02T00:20:54;2.10;;;1.90;;
21593;SDS011;10959;51.328;7.322;2024-03-02T00:23:22;1.80;;;1.70;;
21593;SDS011;10959;51.328;7.322;2024-03-02T00:25:51;1.63;;;1.53;;
21593;SDS011;10959;51.328;7.322;2024-03-02T00:28:21;2.00;;;1.80;;
21593;SDS011;10959;51.328;7.322;2024-03-02T00:30:58;1.90;;;1.70;;
21593;SDS011;10959;51.328;7.322;2024-03-02T00:33:26;2.00;;;1.47;;
21593;SDS011;10959;51.328;7.322;2024-03-02T00:35:54;1.77;;;1.53;;
21593;SDS011;10959;51.328;7.322;2024-03-02T00:38:21;1.93;;;1.70;;
21593;SDS011;10959;51.328;7.322;2024-03-02T00:40:48;2.00;;;1.47;;
21593;SDS011;10959;51.328;7.322;2024-03-02T00:43:25;1.77;;;1.63;;
21593;SDS011;10959;51.328;7.322;2024-03-02T00:46:08;2.43;;;1.50;;
21593;SDS011;10959;51.328;7.322;2024-03-02T00:48:36;1.73;;;1.50;;
21593;SDS011;10959;51.328;7.322;2024-03-02T00:51:03;3.03;;;1.63;;
21593;SDS011;10959;51.328;7.322;2024-03-02T00:53:30;1.67;;;1.57;;
21593;SDS011;10959;51.328;7.322;2024-03-02T00:55:57;1.57;;;1.40;;
21593;SDS011;10959;51.328;7.322;2024-03-02T00:58:26;1.67;;;1.33;;
21593;SDS011;10959;51.328;7.322;2024-03-02T01:00:52;1.63;;;1.53;;
21593;SDS011;10959;51.328;7.322;2024-03-02T01:03:19;1.93;;;1.57;;
21593;SDS011;10959;51.328;7.322;2024-03-02T01:05:45;2.30;;;1.40;;
21593;SDS011;10959;51.328;7.322;2024-03-02T01:08:11;1.77;;;1.17;;
21593;SDS011;10959;51.328;7.322;2024-03-02T01:10:38;2.03;;;1.40;;
21593;SDS011;10959;51.328;7.322;2024-03-02T01:13:04;1.83;;;1.27;;
21593;SDS011;10959;51.328;7.322;2024-03-02T01:15:32;1.90;;;1.50;;
21593;SDS011;10959;51.328;7.322;2024-03-02T01:17:59;2.90;;;1.47;;
21593;SDS011;10959;51.328;7.322;2024-03-02T01:20:25;2.10;;;1.40;;
21593;SDS011;10959;51.328;7.322;2024-03-02T01:22:52;1.30;;;1.10;;
21593;SDS011;10959;51.328;7.322;2024-03-02T01:25:18;2.70;;;1.40;;
21593;SDS011;10959;51.328;7.322;2024-03-02T01:27:45;2.83;;;1.60;;
21593;SDS011;10959;51.328;7.322;2024-03-02T01:30:11;2.27;;;1.40;;
21593;SDS011;10959;51.328;7.322;2024-03-02T01:32:39;2.80;;;1.60;;
21593;SDS011;10959;51.328;7.322;2024-03-02T01:35:06;1.83;;;1.37;;
21593;SDS011;10959;51.328;7.322;2024-03-02T01:37:34;1.57;;;1.10;;
21593;SDS011;10959;51.328;7.322;2024-03-02T01:40:00;1.53;;;1.43;;
21593;SDS011;10959;51.328;7.322;2024-03-02T01:42:27;1.97;;;1.63;;
21593;SDS011;10959;51.328;7.322;2024-03-02T01:44:54;2.50;;;1.70;;
21593;SDS011;10959;51.328;7.322;2024-03-02T01:47:20;2.30;;;1.73;;
21593;SDS011;10959;51.328;7.322;2024-03-02T01:49:48;1.57;;;1.17;;
21593;SDS011;10959;51.328;7.322;2024-03-02T01:52:15;3.63;;;1.60;;
21593;SDS011;10959;51.328;7.322;2024-03-02T01:54:42;2.67;;;1.40;;
21593;SDS011;10959;51.328;7.322;2024-03-02T01:57:09;2.43;;;1.40;;
21593;SDS011;10959;51.328;7.322;2024-03-02T01:59:35;2.30;;;1.73;;
21593;SDS011;10959;51.328;7.322;2024-03-02T02:02:02;2.97;;;1.23;;
21593;SDS011;10959;51.328;7.322;2024-03-02T02:04:28;2.13;;;1.70;;
21593;SDS011;10959;51.328;7.322;2024-03-02T02:06:57;1.70;;;1.30;;
21593;SDS011;10959;51.328;7.322;2024-03-02T02:09:23;2.53;;;1.33;;
21593;SDS011;10959;51.328;7.322;2024-03-02T02:11:50;2.30;;;1.23;;
21593;SDS011;10959;51.328;7.322;2024-03-02T02:14:17;1.57;;;1.37;;
21593;SDS011;10959;51.328;7.322;2024-03-02T02:16:44;1.33;;;1.20;;
21593;SDS011;10959;51.328;7.322;2024-03-02T02:19:11;1.87;;;1.37;;
21593;SDS011;10959;51.328;7.322;2024-03-02T02:21:38;2.60;;;1.33;;
21593;SDS011;10959;51.328;7.322;2024-03-02T02:24:08;1.37;;;1.27;;
21593;SDS011;10959;51.328;7.322;2024-03-02T02:26:34;1.50;;;1.37;;
21593;SDS011;10959;51.328;7.322;2024-03-02T02:29:01;2.30;;;1.30;;
21593;SDS011;10959;51.328;7.322;2024-03-02T02:31:35;2.50;;;1.30;;
21593;SDS011;10959;51.328;7.322;2024-03-02T02:34:02;2.13;;;1.50;;
21593;SDS011;10959;51.328;7.322;2024-03-02T02:36:29;2.47;;;1.47;;
21593;SDS011;10959;51.328;7.322;2024-03-02T02:38:57;2.37;;;1.23;;
21593;SDS011;10959;51.328;7.322;2024-03-02T02:41:25;1.90;;;1.20;;
21593;SDS011;10959;51.328;7.322;2024-03-02T02:43:52;1.60;;;0.93;;
21593;SDS011;10959;51.328;7.322;2024-03-02T02:46:18;2.30;;;1.30;;
21593;SDS011;10959;51.328;7.322;2024-03-02T02:48:45;1.80;;;1.23;;
21593;SDS011;10959;51.328;7.322;2024-03-02T02:51:11;2.17;;;1.40;;
21593;SDS011;10959;51.328;7.322;2024-03-02T02:53:38;1.70;;;1.10;;
21593;SDS011;10959;51.328;7.322;2024-03-02T02:56:07;2.73;;;1.57;;
21593;SDS011;10959;51.328;7.322;2024-03-02T02:58:33;1.73;;;1.43;;
21593;SDS011;10959;51.328;7.322;2024-03-02T03:01:00;1.23;;;1.10;;
21593;SDS011;10959;51.328;7.322;2024-03-02T03:03:26;1.83;;;1.37;;
21593;SDS011;10959;51.328;7.322;2024-03-02T03:05:53;2.30;;;1.23;;
21593;SDS011;10959;51.328;7.322;2024-03-02T03:08:19;2.30;;;1.30;;
21593;SDS011;10959;51.328;7.322;2024-03-02T03:10:48;2.33;;;1.00;;
21593;SDS011;10959;51.328;7.322;2024-03-02T03:13:16;1.97;;;1.20;;
21593;SDS011;10959;51.328;7.322;2024-03-02T03:15:42;1.87;;;1.13;;
21593;SDS011;10959;51.328;7.322;2024-03-02T03:18:09;2.30;;;1.30;;
21593;SDS011;10959;51.328;7.322;2024-03-02T03:20:36;2.53;;;1.37;;
21593;SDS011;10959;51.328;7.322;2024-03-02T03:23:03;1.10;;;1.00;;
21593;SDS011;10959;51.328;7.322;2024-03-02T03:25:30;1.87;;;1.20;;
21593;SDS011;10959;51.328;7.322;2024-03-02T03:27:56;2.03;;;1.30;;
21593;SDS011;10959;51.328;7.322;2024-03-02T03:30:24;3.67;;;1.30;;
21593;SDS011;10959;51.328;7.322;2024-03-02T03:32:50;2.17;;;1.20;;
21593;SDS011;10959;51.328;7.322;2024-03-02T03:35:17;1.23;;;1.07;;
21593;SDS011;10959;51.328;7.322;2024-03-02T03:37:43;4.23;;;1.60;;
21593;SDS011;10959;51.328;7.322;2024-03-02T03:40:10;2.83;;;1.37;;
21593;SDS011;10959;51.328;7.322;2024-03-02T03:42:39;1.50;;;1.30;;
21593;SDS011;10959;51.328;7.322;2024-03-02T03:45:05;1.67;;;1.17;;
21593;SDS011;10959;51.328;7.322;2024-03-02T03:47:34;3.73;;;1.17;;
21593;SDS011;10959;51.328;7.322;2024-03-02T03:50:01;2.30;;;1.40;;
21593;SDS011;10959;51.328;7.322;2024-03-02T03:52:31;1.57;;;1.43;;
21593;SDS011;10959;51.328;7.322;2024-03-02T03:54:58;3.23;;;1.60;;
21593;SDS011;10959;51.328;7.322;2024-03-02T03:57:25;2.03;;;1.47;;
21593;SDS011;10959;51.328;7.322;2024-03-02T03:59:51;2.37;;;1.27;;
21593;SDS011;10959;51.328;7.322;2024-03-02T04:02:17;3.07;;;1.43;;
21593;SDS011;10959;51.328;7.322;2024-03-02T04:04:45;1.70;;;1.40;;
21593;SDS011;10959;51.328;7.322;2024-03-02T04:07:12;2.10;;;1.40;;
21593;SDS011;10959;51.328;7.322;2024-03-02T04:09:38;2.93;;;1.70;;
21593;SDS011;10959;51.328;7.322;2024-03-02T04:12:05;1.53;;;1.40;;
21593;SDS011;10959;51.328;7.322;2024-03-02T04:14:31;1.63;;;1.40;;
21593;SDS011;10959;51.328;7.322;2024-03-02T04:16:58;2.13;;;1.40;;
21593;SDS011;10959;51.328;7.322;2024-03-02T04:19:25;4.20;;;1.80;;
21593;SDS011;10959;51.328;7.322;2024-03-02T04:21:53;3.40;;;1.70;;
21593;SDS011;10959;51.328;7.322;2024-03-02T04:24:19;2.40;;;1.70;;
21593;SDS011;10959;51.328;7.322;2024-03-02T04:26:46;3.60;;;1.50;;
21593;SDS011;10959;51.328;7.322;2024-03-02T04:29:12;1.93;;;1.50;;
21593;SDS011;10959;51.328;7.322;2024-03-02T04:31:39;2.40;;;1.60;;
21593;SDS011;10959;51.328;7.322;2024-03-02T04:34:05;3.40;;;1.60;;
21593;SDS011;10959;51.328;7.322;2024-03-02T04:36:31;1.90;;;1.60;;
21593;SDS011;10959;51.328;7.322;2024-03-02T04:38:59;3.10;;;1.70;;
21593;SDS011;10959;51.328;7.322;2024-03-02T04:41:26;2.77;;;1.60;;
21593;SDS011;10959;51.328;7.322;2024-03-02T04:43:52;2.20;;;1.63;;
21593;SDS011;10959;51.328;7.322;2024-03-02T04:46:19;3.03;;;2.00;;
21593;SDS011;10959;51.328;7.322;2024-03-02T04:48:45;1.90;;;1.63;;
21593;SDS011;10959;51.328;7.322;2024-03-02T04:51:13;2.23;;;2.00;;
21593;SDS011;10959;51.328;7.322;2024-03-02T04:53:40;2.27;;;1.70;;
21593;SDS011;10959;51.328;7.322;2024-03-02T04:56:07;1.90;;;1.70;;
21593;SDS011;10959;51.328;7.322;2024-03-02T04:59:04;1.73;;;1.63;;
21593;SDS011;10959;51.328;7.322;2024-03-02T05:01:30;1.87;;;1.77;;
21593;SDS011;10959;51.328;7.322;2024-03-02T05:03:57;2.07;;;1.77;;
21593;SDS011;10959;51.328;7.322;2024-03-02T05:06:23;2.10;;;1.80;;
21593;SDS011;10959;51.328;7.322;2024-03-02T05:08:49;2.03;;;1.80;;
21593;SDS011;10959;51.328;7.322;2024-03-02T05:11:17;3.03;;;1.67;;
21593;SDS011;10959;51.328;7.322;2024-03-02T05:14:18;2.70;;;2.30;;
21593;SDS011;10959;51.328;7.322;2024-03-02T05:16:44;2.20;;;2.00;;
21593;SDS011;10959;51.328;7.322;2024-03-02T05:19:11;3.07;;;2.00;;
21593;SDS011;10959;51.328;7.322;2024-03-02T05:21:37;3.60;;;1.83;;
21593;SDS011;10959;51.328;7.322;2024-03-02T05:24:04;2.20;;;2.00;;
21593;SDS011;10959;51.328;7.322;2024-03-02T05:26:32;3.60;;;1.97;;
21593;SDS011;10959;51.328;7.322;2024-03-02T05:28:58;3.47;;;2.07;;
21593;SDS011;10959;51.328;7.322;2024-03-02T05:31:25;2.80;;;2.17;;
21593;SDS011;10959;51.328;7.322;2024-03-02T05:33:51;3.57;;;2.37;;
21593;SDS011;10959;51.328;7.322;2024-03-02T05:36:18;4.27;;;2.70;;
21593;SDS011;10959;51.328;7.322;2024-03-02T05:38:45;2.93;;;2.63;;
21593;SDS011;10959;51.328;7.322;2024-03-02T05:41:12;4.10;;;2.70;;
21593;SDS011;10959;51.328;7.322;2024-03-02T05:43:39;3.23;;;2.30;;
21593;SDS011;10959;51.328;7.322;2024-03-02T05:46:06;2.80;;;2.50;;
21593;SDS011;10959;51.328;7.322;2024-03-02T05:48:32;2.83;;;2.53;;
21593;SDS011;10959;51.328;7.322;2024-03-02T05:50:59;4.53;;;2.60;;
21593;SDS011;10959;51.328;7.322;2024-03-02T05:53:26;2.57;;;2.30;;
21593;SDS011;10959;51.328;7.322;2024-03-02T05:55:52;3.97;;;2.27;;
21593;SDS011;10959;51.328;7.322;2024-03-02T05:58:20;4.83;;;2.47;;
21593;SDS011;10959;51.328;7.322;2024-03-02T06:00:59;3.03;;;2.73;;
21593;SDS011;10959;51.328;7.322;2024-03-02T06:03:25;3.17;;;2.30;;
21593;SDS011;10959;51.328;7.322;2024-03-02T06:05:53;2.90;;;2.47;;
21593;SDS011;10959;51.328;7.322;2024-03-02T06:08:20;3.20;;;2.67;;
21593;SDS011;10959;51.328;7.322;2024-03-02T06:10:46;2.70;;;2.50;;
21593;SDS011;10959;51.328;7.322;2024-03-02T06:13:13;3.27;;;2.53;;
21593;SDS011;10959;51.328;7.322;2024-03-02T06:15:39;2.93;;;2.47;;
21593;SDS011;10959;51.328;7.322;2024-03-02T06:18:07;4.07;;;2.63;;
21593;SDS011;10959;51.328;7.322;2024-03-02T06:20:34;2.90;;;2.60;;
21593;SDS011;10959;51.328;7.322;2024-03-02T06:23:00;2.80;;;2.60;;
21593;SDS011;10959;51.328;7.322;2024-03-02T06:25:27;2.83;;;2.53;;
21593;SDS011;10959;51.328;7.322;2024-03-02T06:27:53;3.13;;;2.53;;
21593;SDS011;10959;51.328;7.322;2024-03-02T06:30:19;4.40;;;3.00;;
21593;SDS011;10959;51.328;7.322;2024-03-02T06:32:46;3.07;;;2.70;;
21593;SDS011;10959;51.328;7.322;2024-03-02T06:35:14;3.43;;;2.60;;
21593;SDS011;10959;51.328;7.322;2024-03-02T06:37:40;3.70;;;2.93;;
21593;SDS011;10959;51.328;7.322;2024-03-02T06:40:07;2.70;;;2.50;;
21593;SDS011;10959;51.328;7.322;2024-03-02T06:42:34;3.20;;;2.90;;
21593;SDS011;10959;51.328;7.322;2024-03-02T06:45:02;3.90;;;3.17;;
21593;SDS011;10959;51.328;7.322;2024-03-02T06:47:29;3.70;;;3.00;;
21593;SDS011;10959;51.328;7.322;2024-03-02T06:49:55;3.87;;;3.03;;
21593;SDS011;10959;51.328;7.322;2024-03-02T06:52:24;5.47;;;3.17;;
21593;SDS011;10959;51.328;7.322;2024-03-02T06:54:51;3.67;;;2.87;;
21593;SDS011;10959;51.328;7.322;2024-03-02T06:57:17;5.83;;;2.87;;
21593;SDS011;10959;51.328;7.322;2024-03-02T06:59:45;4.03;;;2.87;;
21593;SDS011;10959;51.328;7.322;2024-03-02T07:02:12;3.33;;;2.73;;
21593;SDS011;10959;51.328;7.322;2024-03-02T07:04:38;5.50;;;3.00;;
21593;SDS011;10959;51.328;7.322;2024-03-02T07:07:05;5.03;;;3.43;;
21593;SDS011;10959;51.328;7.322;2024-03-02T07:09:32;3.70;;;3.30;;
21593;SDS011;10959;51.328;7.322;2024-03-02T07:11:59;5.40;;;2.50;;
21593;SDS011;10959;51.328;7.322;2024-03-02T07:14:26;5.23;;;2.80;;
21593;SDS011;10959;51.328;7.322;2024-03-02T07:17:13;3.30;;;2.47;;
21593;SDS011;10959;51.328;7.322;2024-03-02T07:19:39;3.60;;;2.93;;
21593;SDS011;10959;51.328;7.322;2024-03-02T07:22:05;3.63;;;2.93;;
21593;SDS011;10959;51.328;7.322;2024-03-02T07:24:34;3.03;;;2.63;;
21593;SDS011;10959;51.328;7.322;2024-03-02T07:27:05;6.33;;;2.90;;
21593;SDS011;10959;51.328;7.322;2024-03-02T07:29:32;3.70;;;2.33;;
21593;SDS011;10959;51.328;7.322;2024-03-02T07:31:58;2.80;;;2.47;;
21593;SDS011;10959;51.328;7.322;2024-03-02T07:34:25;3.57;;;2.30;;
21593;SDS011;10959;51.328;7.322;2024-03-02T07:36:51;3.03;;;2.47;;
21593;SDS011;10959;51.328;7.322;2024-03-02T07:39:17;4.20;;;2.57;;
21593;SDS011;10959;51.328;7.322;2024-03-02T07:41:46;3.93;;;2.60;;
21593;SDS011;10959;51.328;7.322;2024-03-02T07:44:12;4.43;;;2.20;;
21593;SDS011;10959;51.328;7.322;2024-03-02T07:46:40;3.17;;;2.23;;
21593;SDS011;10959;51.328;7.322;2024-03-02T07:49:06;2.40;;;2.20;;
21593;SDS011;10959;51.328;7.322;2024-03-02T07:51:33;4.27;;;2.20;;
21593;SDS011;10959;51.328;7.322;2024-03-02T07:54:00;3.60;;;2.10;;
21593;SDS011;10959;51.328;7.322;2024-03-02T07:56:26;3.37;;;2.07;;
21593;SDS011;10959;51.328;7.322;2024-03-02T07:58:54;2.40;;;1.87;;
21593;SDS011;10959;51.328;7.322;2024-03-02T08:01:22;2.60;;;2.00;;
21593;SDS011;10959;51.328;7.322;2024-03-02T08:03:48;2.17;;;1.93;;
21593;SDS011;10959;51.328;7.322;2024-03-02T08:06:15;3.50;;;2.40;;
21593;SDS011;10959;51.328;7.322;2024-03-02T08:08:42;2.80;;;2.20;;
21593;SDS011;10959;51.328;7.322;2024-03-02T08:11:08;2.37;;;1.70;;
21593;SDS011;10959;51.328;7.322;2024-03-02T08:13:35;4.17;;;2.20;;
21593;SDS011;10959;51.328;7.322;2024-03-02T08:16:03;3.43;;;1.93;;
21593;SDS011;10959;51.328;7.322;2024-03-02T08:18:32;2.30;;;2.07;;
21593;SDS011;10959;51.328;7.322;2024-03-02T08:20:59;2.87;;;2.07;;
21593;SDS011;10959;51.328;7.322;2024-03-02T08:23:25;5.13;;;2.20;;
21593;SDS011;10959;51.328;7.322;2024-03-02T08:25:52;1.97;;;1.87;;
21593;SDS011;10959;51.328;7.322;2024-03-02T08:28:18;4.50;;;2.17;;
21593;SDS011;10959;51.328;7.322;2024-03-02T08:30:45;1.97;;;1.77;;
21593;SDS011;10959;51.328;7.322;2024-03-02T08:33:13;2.67;;;2.30;;
21593;SDS011;10959;51.328;7.322;2024-03-02T08:35:39;2.83;;;1.90;;
21593;SDS011;10959;51.328;7.322;2024-03-02T08:38:06;2.77;;;1.97;;
21593;SDS011;10959;51.328;7.322;2024-03-02T08:40:32;2.50;;;1.83;;
21593;SDS011;10959;51.328;7.322;2024-03-02T08:42:59;2.37;;;1.87;;
21593;SDS011;10959;51.328;7.322;2024-03-02T08:45:24;2.13;;;1.93;;
21593;SDS011;10959;51.328;7.322;2024-03-02T08:47:51;2.63;;;2.10;;
21593;SDS011;10959;51.328;7.322;2024-03-02T08:50:19;2.37;;;2.17;;
21593;SDS011;10959;51.328;7.322;2024-03-02T08:52:45;2.07;;;1.70;;
21593;SDS011;10959;51.328;7.322;2024-03-02T08:55:11;2.40;;;1.70;;
21593;SDS011;10959;51.328;7.322;2024-03-02T08:57:38;3.13;;;1.70;;
21593;SDS011;10959;51.328;7.322;2024-03-02T09:00:05;2.60;;;1.80;;
21593;SDS011;10959;51.328;7.322;2024-03-02T09:02:32;2.17;;;1.60;;
21593;SDS011;10959;51.328;7.322;2024-03-02T09:04:59;2.97;;;1.70;;
21593;SDS011;10959;51.328;7.322;2024-03-02T09:07:27;1.97;;;1.47;;
21593;SDS011;10959;51.328;7.322;2024-03-02T09:09:53;1.40;;;1.10;;
21593;SDS011;10959;51.328;7.322;2024-03-02T09:12:20;1.63;;;1.40;;
21593;SDS011;10959;51.328;7.322;2024-03-02T09:14:46;1.93;;;1.60;;
21593;SDS011;10959;51.328;7.322;2024-03-02T09:17:13;1.97;;;1.20;;
21593;SDS011;10959;51.328;7.322;2024-03-02T09:19:39;2.07;;;1.53;;
21593;SDS011;10959;51.328;7.322;2024-03-02T09:22:07;2.23;;;1.40;;
21593;SDS011;10959;51.328;7.322;2024-03-02T09:24:36;1.60;;;1.20;;
21593;SDS011;10959;51.328;7.322;2024-03-02T09:27:02;1.60;;;1.50;;
21593;SDS011;10959;51.328;7.322;2024-03-02T09:29:29;1.97;;;1.37;;
21593;SDS011;10959;51.328;7.322;2024-03-02T09:31:56;1.97;;;1.40;;
21593;SDS011;10959;51.328;7.322;2024-03-02T09:34:22;1.30;;;1.20;;
21593;SDS011;10959;51.328;7.322;2024-03-02T09:36:50;1.77;;;1.20;;
21593;SDS011;10959;51.328;7.322;2024-03-02T09:39:17;2.00;;;1.40;;
21593;SDS011;10959;51.328;7.322;2024-03-02T09:41:45;2.20;;;1.30;;
21593;SDS011;10959;51.328;7.322;2024-03-02T09:44:11;1.07;;;0.97;;
21593;SDS011;10959;51.328;7.322;2024-03-02T09:46:38;3.07;;;1.37;;
21593;SDS011;10959;51.328;7.322;2024-03-02T09:49:05;1.80;;;0.97;;
21593;SDS011;10959;51.328;7.322;2024-03-02T09:51:32;1.37;;;1.00;;
21593;SDS011;10959;51.328;7.322;2024-03-02T09:53:58;0.87;;;0.80;;
21593;SDS011;10959;51.328;7.322;2024-03-02T09:56:27;1.00;;;0.70;;
21593;SDS011;10959;51.328;7.322;2024-03-02T09:58:54;1.30;;;0.90;;
21593;SDS011;10959;51.328;7.322;2024-03-02T10:01:21;0.63;;;0.60;;
21593;SDS011;10959;51.328;7.322;2024-03-02T10:03:47;1.33;;;0.60;;
21593;SDS011;10959;51.328;7.322;2024-03-02T10:06:19;1.27;;;0.70;;
21593;SDS011;10959;51.328;7.322;2024-03-02T10:08:47;0.80;;;0.70;;
21593;SDS011;10959;51.328;7.322;2024-03-02T10:11:25;1.00;;;0.90;;
21593;SDS011;10959;51.328;7.322;2024-03-02T10:14:04;1.07;;;0.70;;
21593;SDS011;10959;51.328;7.322;2024-03-02T10:16:33;1.77;;;0.80;;
21593;SDS011;10959;51.328;7.322;2024-03-02T10:19:08;1.03;;;0.90;;
21593;SDS011;10959;51.328;7.322;2024-03-02T10:21:41;1.30;;;0.90;;
21593;SDS011;10959;51.328;7.322;2024-03-02T10:24:08;1.50;;;0.80;;
21593;SDS011;10959;51.328;7.322;2024-03-02T10:26:34;0.90;;;0.70;;
21593;SDS011;10959;51.328;7.322;2024-03-02T10:29:01;1.27;;;0.80;;
21593;SDS011;10959;51.328;7.322;2024-03-02T10:31:28;1.60;;;0.77;;
21593;SDS011;10959;51.328;7.322;2024-03-02T10:33:55;1.27;;;1.00;;
21593;SDS011;10959;51.328;7.322;2024-03-02T10:36:22;0.73;;;0.53;;
21593;SDS011;10959;51.328;7.322;2024-03-02T10:38:50;1.10;;;0.90;;
21593;SDS011;10959;51.328;7.322;2024-03-02T10:41:20;2.00;;;0.80;;
21593;SDS011;10959;51.328;7.322;2024-03-02T10:43:50;0.80;;;0.80;;
21593;SDS011;10959;51.328;7.322;2024-03-02T10:46:20;1.13;;;0.80;;
21593;SDS011;10959;51.328;7.322;2024-03-02T10:48:50;1.10;;;0.73;;
21593;SDS011;10959;51.328;7.322;2024-03-02T10:51:16;1.03;;;0.70;;
21593;SDS011;10959;51.328;7.322;2024-03-02T10:53:43;3.33;;;1.00;;
21593;SDS011;10959;51.328;7.322;2024-03-02T10:56:09;1.47;;;0.80;;
21593;SDS011;10959;51.328;7.322;2024-03-02T10:58:41;2.33;;;0.90;;
21593;SDS011;10959;51.328;7.322;2024-03-02T11:01:08;1.40;;;0.80;;
21593;SDS011;10959;51.328;7.322;2024-03-02T11:03:37;1.80;;;1.10;;
21593;SDS011;10959;51.328;7.322;2024-03-02T11:06:07;0.93;;;0.73;;
21593;SDS011;10959;51.328;7.322;2024-03-02T11:08:35;2.50;;;0.90;;
21593;SDS011;10959;51.328;7.322;2024-03-02T11:11:06;2.27;;;1.03;;
21593;SDS011;10959;51.328;7.322;2024-03-02T11:13:35;1.50;;;0.87;;
21593;SDS011;10959;51.328;7.322;2024-03-02T11:16:05;3.17;;;1.17;;
21593;SDS011;10959;51.328;7.322;2024-03-02T11:18:36;2.40;;;0.70;;
21593;SDS011;10959;51.328;7.322;2024-03-02T11:21:03;0.87;;;0.80;;
21593;SDS011;10959;51.328;7.322;2024-03-02T11:23:32;2.37;;;1.03;;
21593;SDS011;10959;51.328;7.322;2024-03-02T11:28:44;1.00;;;0.90;;
21593;SDS011;10959;51.328;7.322;2024-03-02T11:31:11;1.63;;;0.60;;
21593;SDS011;10959;51.328;7.322;2024-03-02T11:33:37;1.30;;;0.90;;
21593;SDS011;10959;51.328;7.322;2024-03-02T11:36:05;2.63;;;0.60;;
21593;SDS011;10959;51.328;7.322;2024-03-02T11:38:34;1.33;;;0.80;;
21593;SDS011;10959;51.328;7.322;2024-03-02T11:41:02;0.80;;;0.70;;
21593;SDS011;10959;51.328;7.322;2024-03-02T11:43:32;1.67;;;0.80;;
21593;SDS011;10959;51.328;7.322;2024-03-02T11:45:59;1.63;;;0.93;;
21593;SDS011;10959;51.328;7.322;2024-03-02T11:48:29;1.40;;;0.80;;
21593;SDS011;10959;51.328;7.322;2024-03-02T11:50:57;1.83;;;1.00;;
21593;SDS011;10959;51.328;7.322;2024-03-02T11:53:24;1.67;;;0.80;;
21593;SDS011;10959;51.328;7.322;2024-03-02T11:55:55;1.00;;;0.90;;
21593;SDS011;10959;51.328;7.322;2024-03-02T11:58:22;1.57;;;1.00;;
21593;SDS011;10959;51.328;7.322;2024-03-02T12:00:50;1.27;;;0.90;;
21593;SDS011;10959;51.328;7.322;2024-03-02T12:03:16;1.03;;;0.70;;
21593;SDS011;10959;51.328;7.322;2024-03-02T12:05:43;1.53;;;1.00;;
21593;SDS011;10959;51.328;7.322;2024-03-02T12:08:10;1.07;;;0.93;;
21593;SDS011;10959;51.328;7.322;2024-03-02T12:10:38;1.20;;;1.03;;
21593;SDS011;10959;51.328;7.322;2024-03-02T12:13:07;1.73;;;0.97;;
21593;SDS011;10959;51.328;7.322;2024-03-02T12:15:36;1.00;;;0.90;;
21593;SDS011;10959;51.328;7.322;2024-03-02T12:18:06;1.40;;;0.80;;
21593;SDS011;10959;51.328;7.322;2024-03-02T12:20:33;1.40;;;0.93;;
21593;SDS011;10959;51.328;7.322;2024-03-02T12:23:00;1.20;;;1.00;;
21593;SDS011;10959;51.328;7.322;2024-03-02T12:25:28;1.10;;;0.73;;
21593;SDS011;10959;51.328;7.322;2024-03-02T12:27:58;1.23;;;0.60;;
21593;SDS011;10959;51.328;7.322;2024-03-02T12:30:29;0.83;;;0.63;;
21593;SDS011;10959;51.328;7.322;2024-03-02T12:32:56;1.20;;;0.63;;
21593;SDS011;10959;51.328;7.322;2024-03-02T12:35:23;1.33;;;0.77;;
21593;SDS011;10959;51.328;7.322;2024-03-02T12:37:51;2.20;;;0.60;;
21593;SDS011;10959;51.328;7.322;2024-03-02T12:40:19;0.43;;;0.33;;
21593;SDS011;10959;51.328;7.322;2024-03-02T12:42:47;1.73;;;0.57;;
21593;SDS011;10959;51.328;7.322;2024-03-02T12:45:15;1.10;;;0.70;;
21593;SDS011;10959;51.328;7.322;2024-03-02T12:47:50;1.00;;;0.43;;
21593;SDS011;10959;51.328;7.322;2024-03-02T12:50:17;1.37;;;0.60;;
21593;SDS011;10959;51.328;7.322;2024-03-02T12:52:43;0.97;;;0.53;;
21593;SDS011;10959;51.328;7.322;2024-03-02T12:55:10;1.37;;;0.77;;
21593;SDS011;10959;51.328;7.322;2024-03-02T12:57:36;1.63;;;0.57;;
21593;SDS011;10959;51.328;7.322;2024-03-02T13:00:03;1.17;;;0.50;;
21593;SDS011;10959;51.328;7.322;2024-03-02T13:02:34;0.50;;;0.40;;
21593;SDS011;10959;51.328;7.322;2024-03-02T13:05:02;0.67;;;0.50;;
21593;SDS011;10959;51.328;7.322;2024-03-02T13:07:29;0.67;;;0.40;;
21593;SDS011;10959;51.328;7.322;2024-03-02T13:09:56;0.43;;;0.30;;
21593;SDS011;10959;51.328;7.322;2024-03-02T13:12:22;0.40;;;0.30;;
21593;SDS011;10959;51.328;7.322;2024-03-02T13:14:51;0.57;;;0.50;;
21593;SDS011;10959;51.328;7.322;2024-03-02T13:17:18;0.80;;;0.40;;
21593;SDS011;10959;51.328;7.322;2024-03-02T13:19:51;0.40;;;0.30;;
21593;SDS011;10959;51.328;7.322;2024-03-02T13:22:20;0.30;;;0.30;;
21593;SDS011;10959;51.328;7.322;2024-03-02T13:24:47;1.87;;;0.50;;
21593;SDS011;10959;51.328;7.322;2024-03-02T13:27:14;1.97;;;0.40;;
21593;SDS011;10959;51.328;7.322;2024-03-02T13:29:41;0.40;;;0.40;;
21593;SDS011;10959;51.328;7.322;2024-03-02T13:32:07;0.30;;;0.23;;
21593;SDS011;10959;51.328;7.322;2024-03-02T13:34:34;0.47;;;0.33;;
21593;SDS011;10959;51.328;7.322;2024-03-02T13:37:01;0.57;;;0.30;;
21593;SDS011;10959;51.328;7.322;2024-03-02T13:39:29;0.50;;;0.30;;
21593;SDS011;10959;51.328;7.322;2024-03-02T13:41:56;1.20;;;0.60;;
21593;SDS011;10959;51.328;7.322;2024-03-02T13:44:28;0.40;;;0.30;;
21593;SDS011;10959;51.328;7.322;2024-03-02T13:46:55;0.70;;;0.50;;
21593;SDS011;10959;51.328;7.322;2024-03-02T13:49:23;0.63;;;0.40;;
21593;SDS011;10959;51.328;7.322;2024-03-02T13:51:49;0.67;;;0.40;;
21593;SDS011;10959;51.328;7.322;2024-03-02T13:54:16;0.50;;;0.40;;
21593;SDS011;10959;51.328;7.322;2024-03-02T13:56:44;0.70;;;0.40;;
21593;SDS011;10959;51.328;7.322;2024-03-02T13:59:11;1.13;;;0.60;;
21593;SDS011;10959;51.328;7.322;2024-03-02T14:01:38;0.50;;;0.50;;
21593;SDS011;10959;51.328;7.322;2024-03-02T14:04:05;1.83;;;0.60;;
21593;SDS011;10959;51.328;7.322;2024-03-02T14:06:31;0.80;;;0.50;;
21593;SDS011;10959;51.328;7.322;2024-03-02T14:08:58;0.87;;;0.50;;
21593;SDS011;10959;51.328;7.322;2024-03-02T14:11:24;0.67;;;0.40;;
21593;SDS011;10959;51.328;7.322;2024-03-02T14:13:53;0.93;;;0.70;;
21593;SDS011;10959;51.328;7.322;2024-03-02T14:16:19;1.23;;;0.53;;
21593;SDS011;10959;51.328;7.322;2024-03-02T14:18:46;0.70;;;0.50;;
21593;SDS011;10959;51.328;7.322;2024-03-02T14:21:12;0.60;;;0.50;;
21593;SDS011;10959;51.328;7.322;2024-03-02T14:23:39;1.47;;;0.70;;
21593;SDS011;10959;51.328;7.322;2024-03-02T14:26:06;2.00;;;0.73;;
21593;SDS011;10959;51.328;7.322;2024-03-02T14:28:33;1.07;;;0.63;;
21593;SDS011;10959;51.328;7.322;2024-03-02T14:31:01;2.60;;;0.63;;
21593;SDS011;10959;51.328;7.322;2024-03-02T14:33:27;1.30;;;0.70;;
21593;SDS011;10959;51.328;7.322;2024-03-02T14:35:54;0.70;;;0.60;;
21593;SDS011;10959;51.328;7.322;2024-03-02T14:38:21;1.07;;;0.70;;
21593;SDS011;10959;51.328;7.322;2024-03-02T14:40:48;1.27;;;0.70;;
21593;SDS011;10959;51.328;7.322;2024-03-02T14:43:14;1.00;;;0.70;;
21593;SDS011;10959;51.328;7.322;2024-03-02T14:45:41;0.97;;;0.80;;
21593;SDS011;10959;51.328;7.322;2024-03-02T14:48:08;1.93;;;0.70;;
21593;SDS011;10959;51.328;7.322;2024-03-02T14:50:37;1.03;;;0.93;;
21593;SDS011;10959;51.328;7.322;2024-03-02T14:53:03;1.33;;;0.90;;